Time;durP1;ratioP1;P1;durP2;ratioP2;P2;SDS_P1;SDS_P2;PMS_P1;PMS_P2;Temp;Humidity;BMP_temperature;BMP_pressure;BME280_temperature;BME280_humidity;BME280_pressure;Samples;Min_cycle;Max_cycle;Signal;HPM_P1;HPM_P2
2022/03/17 00:01:17;;;;;;;38.65;22.15;;;;;;;10.09;100.00;101902.47;5050181;28;20050;-55
2022/03/17 00:03:42;;;;;;;36.70;22.27;;;;;;;10.09;100.00;101894.44;5052696;28;20549;-55
2022/03/17 00:06:07;;;;;;;43.17;22.98;;;;;;;10.08;100.00;101900.75;5052731;28;20040;-55
2022/03/17 00:08:32;;;;;;;40.72;22.80;;;;;;;10.07;100.00;101909.75;5052028;28;20033;-55
2022/03/17 00:10:58;;;;;;;39.92;22.30;;;;;;;10.07;100.00;101899.91;5052123;28;20017;-55
2022/03/17 00:13:23;;;;;;;40.05;23.08;;;;;;;10.05;100.00;101901.03;5053478;28;20067;-55
2022/03/17 00:15:49;;;;;;;41.25;22.42;;;;;;;10.05;100.00;101893.88;5049970;28;20089;-56
2022/03/17 00:18:14;;;;;;;39.10;21.85;;;;;;;10.05;100.00;101901.88;5045132;28;20054;-55
2022/03/17 00:20:41;;;;;;;39.40;22.48;;;;;;;10.02;100.00;101899.47;5033799;28;20066;-55
2022/03/17 00:23:06;;;;;;;44.08;23.13;;;;;;;10.02;100.00;101898.63;5033269;28;20392;-55
2022/03/17 00:25:32;;;;;;;44.38;24.27;;;;;;;10.00;100.00;101912.09;5051060;28;20398;-55
2022/03/17 00:27:58;;;;;;;38.83;22.40;;;;;;;9.99;100.00;101897.06;5047887;28;20040;-55
2022/03/17 00:30:24;;;;;;;39.78;21.90;;;;;;;9.98;100.00;101899.84;5043893;28;20029;-56
2022/03/17 00:32:50;;;;;;;39.92;23.63;;;;;;;9.98;100.00;101899.84;5032589;28;20103;-56
2022/03/17 00:37:59;;;;;;;43.75;24.42;;;;;;;9.96;100.00;101894.69;5051493;28;20080;-56
2022/03/17 00:40:25;;;;;;;42.63;22.58;;;;;;;9.95;100.00;101892.97;5052457;28;20028;-55
2022/03/17 00:42:51;;;;;;;38.58;22.77;;;;;;;9.92;100.00;101889.72;5052416;28;20024;-56
2022/03/17 00:45:17;;;;;;;39.45;22.80;;;;;;;9.90;100.00;101900.53;5052059;28;20112;-56
2022/03/17 00:47:43;;;;;;;43.03;24.35;;;;;;;9.88;100.00;101899.81;5045986;28;20147;-56
2022/03/17 00:50:10;;;;;;;41.20;23.48;;;;;;;9.85;100.00;101902.75;5043778;28;20447;-55
2022/03/17 00:52:35;;;;;;;45.42;23.13;;;;;;;9.83;100.00;101908.19;5012701;28;20360;-55
2022/03/17 00:55:01;;;;;;;42.20;23.27;;;;;;;9.81;100.00;101910.16;5033201;28;20025;-54
2022/03/17 00:57:26;;;;;;;45.00;24.25;;;;;;;9.79;100.00;101906.78;5044475;28;20119;-54
2022/03/17 00:59:51;;;;;;;47.08;24.45;;;;;;;9.78;100.00;101912.25;5053824;28;20044;-54
2022/03/17 01:02:17;;;;;;;44.88;24.13;;;;;;;9.78;100.00;101904.25;5047466;28;20154;-54
2022/03/17 01:04:42;;;;;;;40.63;22.48;;;;;;;9.81;100.00;101904.81;5035870;28;20502;-54
2022/03/17 01:07:08;;;;;;;49.95;23.67;;;;;;;9.82;100.00;101901.16;5049795;28;20024;-54
2022/03/17 01:09:33;;;;;;;44.65;24.20;;;;;;;9.86;100.00;101907.06;5044421;28;20079;-54
2022/03/17 01:11:59;;;;;;;46.55;23.73;;;;;;;9.90;100.00;101906.69;5035253;28;20381;-54
2022/03/17 01:14:26;;;;;;;45.53;23.85;;;;;;;9.93;100.00;101904.75;5054100;28;20043;-54
2022/03/17 01:16:51;;;;;;;45.22;24.55;;;;;;;9.93;100.00;101910.94;5055656;28;20016;-54
2022/03/17 01:19:19;;;;;;;46.92;26.42;;;;;;;9.97;100.00;101915.03;5053765;28;20039;-54
2022/03/17 01:21:45;;;;;;;41.08;22.92;;;;;;;9.99;100.00;101902.41;5037517;28;20498;-54
2022/03/17 01:24:11;;;;;;;48.28;24.88;;;;;;;10.03;100.00;101906.50;5051248;28;20429;-55
2022/03/17 01:26:36;;;;;;;49.67;23.63;;;;;;;10.04;100.00;101894.00;5054830;28;20064;-55
2022/03/17 01:29:02;;;;;;;51.17;24.08;;;;;;;10.06;100.00;101892.91;5046105;28;20275;-55
2022/03/17 01:31:27;;;;;;;53.38;25.83;;;;;;;10.08;100.00;101890.06;5042806;28;20418;-58
2022/03/17 01:33:54;;;;;;;44.42;25.40;;;;;;;10.09;100.00;101900.63;5035780;28;20025;-55
2022/03/17 01:36:19;;;;;;;47.45;23.98;;;;;;;10.12;100.00;101918.22;5047552;28;20052;-55
2022/03/17 01:38:44;;;;;;;48.38;25.00;;;;;;;10.15;100.00;101907.28;5054686;28;20771;-55
2022/03/17 01:41:10;;;;;;;44.53;23.80;;;;;;;10.15;100.00;101904.63;5029987;28;20025;-55
2022/03/17 01:43:35;;;;;;;47.13;24.33;;;;;;;10.17;100.00;101891.13;5035503;28;20120;-55
2022/03/17 01:46:00;;;;;;;48.40;24.40;;;;;;;10.18;100.00;101890.13;5034965;28;20278;-55
2022/03/17 01:48:25;;;;;;;45.10;23.73;;;;;;;10.18;100.00;101893.69;5034653;28;20464;-55
2022/03/17 01:50:54;;;;;;;44.88;25.20;;;;;;;10.18;100.00;101911.50;5035521;28;20033;-55
2022/03/17 01:53:21;;;;;;;44.28;24.13;;;;;;;10.18;100.00;101915.03;5036825;28;20075;-55
2022/03/17 01:55:47;;;;;;;46.42;23.60;;;;;;;10.19;100.00;101902.53;5047231;28;20032;-55
2022/03/17 01:58:12;;;;;;;51.92;25.20;;;;;;;10.18;100.00;101909.69;5040382;28;20032;-55
2022/03/17 02:00:40;;;;;;;51.53;26.10;;;;;;;10.18;100.00;101903.47;5054766;28;20115;-55
2022/03/17 02:03:06;;;;;;;50.50;23.65;;;;;;;10.19;100.00;101902.53;5046854;28;20024;-55
2022/03/17 02:05:32;;;;;;;47.47;24.27;;;;;;;10.22;100.00;101899.59;5039825;28;20275;-55
2022/03/17 02:07:57;;;;;;;51.15;25.02;;;;;;;10.23;100.00;101899.47;5053961;28;20028;-55
2022/03/17 02:10:23;;;;;;;48.53;25.00;;;;;;;10.26;100.00;101903.66;5054779;28;20370;-54
2022/03/17 02:15:33;;;;;;;54.42;26.35;;;;;;;10.31;100.00;101905.94;5054160;28;20051;-56
2022/03/17 02:18:03;;;;;;;52.67;25.52;;;;;;;10.32;100.00;101908.53;5054445;28;20546;-55
2022/03/17 02:20:29;;;;;;;49.70;25.70;;;;;;;10.32;100.00;101913.00;5036226;28;20040;-55
2022/03/17 02:25:33;;;;;;;47.58;25.05;;;;;;;10.31;100.00;101911.28;5054478;28;20038;-54
2022/03/17 02:25:49;;;;;;;48.00;24.25;;;;;;;10.29;100.00;101919.44;5039446;28;20049;-55
2022/03/17 02:28:15;;;;;;;43.83;23.70;;;;;;;10.27;100.00;101905.38;5045312;28;20089;-55
2022/03/17 02:30:40;;;;;;;50.95;24.73;;;;;;;10.27;100.00;101910.72;5040214;28;20771;-55
2022/03/17 02:33:09;;;;;;;54.63;25.30;;;;;;;10.26;100.00;101909.00;5053378;28;20024;-55
2022/03/17 02:35:37;;;;;;;51.38;25.88;;;;;;;10.23;100.00;101920.81;5054017;28;20028;-55
2022/03/17 02:38:04;;;;;;;50.65;25.13;;;;;;;10.23;100.00;101917.28;5041465;28;20055;-55
2022/03/17 02:40:33;;;;;;;49.67;25.70;;;;;;;10.23;100.00;101938.63;5051380;28;20036;-54
2022/03/17 02:42:59;;;;;;;58.60;27.25;;;;;;;10.22;100.00;101935.13;5049505;28;20032;-55
2022/03/17 02:45:25;;;;;;;53.47;26.30;;;;;;;10.21;100.00;101932.59;5033415;28;20384;-55
2022/03/17 02:47:51;;;;;;;53.30;27.38;;;;;;;10.21;100.00;101944.09;5033337;28;20123;-55
2022/03/17 02:50:16;;;;;;;51.50;26.67;;;;;;;10.22;100.00;101951.16;5053831;28;20027;-54
2022/03/17 02:52:41;;;;;;;60.05;28.00;;;;;;;10.23;100.00;101950.19;5038159;28;20044;-54
2022/03/17 02:55:09;;;;;;;55.28;26.52;;;;;;;10.23;100.00;101962.66;5039762;28;20040;-54
2022/03/17 02:57:36;;;;;;;62.17;29.98;;;;;;;10.18;100.00;101959.53;5048956;28;20082;-54
2022/03/17 03:00:03;;;;;;;63.80;34.17;;;;;;;10.15;100.00;101967.81;5043906;28;20025;-55
2022/03/17 03:02:30;;;;;;;68.90;34.10;;;;;;;10.13;100.00;101972.44;5053573;28;20096;-54
2022/03/17 03:04:55;;;;;;;74.82;34.85;;;;;;;10.12;100.00;101976.09;5054056;28;20547;-55
2022/03/17 03:07:20;;;;;;;79.20;38.13;;;;;;;10.05;100.00;101994.47;5045957;28;20258;-55
2022/03/17 03:09:46;;;;;;;47.55;23.92;;;;;;;9.89;100.00;102002.88;5038786;28;20391;-55
2022/03/17 03:12:11;;;;;;;44.22;24.33;;;;;;;9.65;100.00;102011.94;5016456;28;20032;-56
2022/03/17 03:14:37;;;;;;;39.22;20.13;;;;;;;9.45;100.00;102015.41;5043286;28;20454;-55
2022/03/17 03:17:02;;;;;;;33.72;19.17;;;;;;;9.31;100.00;102017.38;5034389;28;20128;-56
2022/03/17 03:19:28;;;;;;;34.13;20.58;;;;;;;9.19;100.00;102023.69;5053443;28;20029;-56
2022/03/17 03:21:53;;;;;;;37.28;22.15;;;;;;;9.08;100.00;102029.03;5053406;28;20115;-55
2022/03/17 03:24:18;;;;;;;36.53;20.25;;;;;;;9.01;100.00;102036.66;5051076;28;20021;-55
2022/03/17 03:26:44;;;;;;;33.53;20.25;;;;;;;8.94;100.00;102032.78;5052593;28;20096;-56
2022/03/17 03:29:27;;;;;;;34.50;20.40;;;;;;;8.88;100.00;102058.09;5047909;28;20336;-56
2022/03/17 03:31:55;;;;;;;33.58;18.38;;;;;;;8.75;100.00;102050.22;5050631;28;20032;-56
2022/03/17 03:34:20;;;;;;;35.28;21.05;;;;;;;8.68;100.00;102064.13;5033093;28;20130;-56
2022/03/17 03:39:30;;;;;;;40.38;22.67;;;;;;;8.55;100.00;102081.06;5043190;28;20193;-56
2022/03/17 03:41:56;;;;;;;43.20;25.52;;;;;;;8.51;100.00;102089.41;5053302;28;20074;-56
2022/03/17 03:44:21;;;;;;;47.85;25.60;;;;;;;8.48;100.00;102095.78;5046221;28;20033;-55
2022/03/17 03:46:47;;;;;;;47.65;28.73;;;;;;;8.48;100.00;102106.44;5033761;28;20033;-55
2022/03/17 03:49:12;;;;;;;52.75;29.75;;;;;;;8.45;100.00;102117.31;5032779;28;20028;-55
2022/03/17 03:51:37;;;;;;;54.13;28.77;;;;;;;8.44;100.00;102122.78;5030910;28;20067;-55
2022/03/17 03:54:18;;;;;;;58.08;31.70;;;;;;;8.39;100.00;102131.06;5031864;28;20136;-55
2022/03/17 03:56:52;;;;;;;46.40;25.60;;;;;;;8.36;100.00;102137.47;5047849;28;20115;-55
2022/03/17 03:59:20;;;;;;;42.67;25.25;;;;;;;8.34;100.00;102143.88;5052806;28;20295;-54
2022/03/17 04:01:50;;;;;;;46.33;25.02;;;;;;;8.32;100.00;102151.97;5043112;28;20028;-55
2022/03/17 04:04:19;;;;;;;40.95;24.20;;;;;;;8.31;100.00;102160.06;5052178;28;20093;-55
2022/03/17 04:06:47;;;;;;;40.25;20.05;;;;;;;8.32;100.00;102159.13;5040749;28;20398;-56
2022/03/17 04:09:14;;;;;;;39.83;21.85;;;;;;;8.26;100.00;102176.38;5031525;28;20080;-55
2022/03/17 04:11:43;;;;;;;43.58;23.58;;;;;;;8.24;100.00;102172.97;5032931;28;20518;-55
2022/03/17 04:14:09;;;;;;;50.38;24.80;;;;;;;8.19;100.00;102173.31;5042986;28;20064;-55
2022/03/17 04:16:34;;;;;;;53.97;26.98;;;;;;;8.14;100.00;102188.78;5033151;28;20021;-55
2022/03/17 04:19:00;;;;;;;57.95;26.75;;;;;;;8.07;100.00;102192.84;5031501;28;20028;-55
2022/03/17 04:21:26;;;;;;;53.83;26.30;;;;;;;8.01;100.00;102191.50;5048312;28;20435;-55
2022/03/17 04:23:51;;;;;;;49.88;25.58;;;;;;;7.95;100.00;102207.88;5051280;28;20040;-55
2022/03/17 04:26:16;;;;;;;56.83;28.15;;;;;;;7.87;100.00;102218.22;5046704;28;20398;-55
2022/03/17 04:28:42;;;;;;;58.65;27.30;;;;;;;7.84;100.00;102223.75;5052539;28;20028;-55
2022/03/17 04:31:07;;;;;;;57.25;27.33;;;;;;;7.81;100.00;102221.34;5044288;28;20392;-55
2022/03/17 04:33:32;;;;;;;59.15;29.02;;;;;;;7.81;100.00;102235.47;5032191;28;20051;-55
2022/03/17 04:35:57;;;;;;;59.58;28.25;;;;;;;7.79;100.00;102247.16;5032618;28;20021;-56
2022/03/17 04:38:23;;;;;;;58.97;26.85;;;;;;;7.78;100.00;102253.47;5030680;28;20752;-55
2022/03/17 04:40:49;;;;;;;56.88;27.17;;;;;;;7.76;100.00;102263.38;5034759;28;20131;-55
2022/03/17 04:43:18;;;;;;;62.55;31.48;;;;;;;7.71;100.00;102284.94;5037828;28;20732;-55
2022/03/17 04:45:45;;;;;;;72.43;34.33;;;;;;;7.60;100.00;102277.72;5052811;28;20028;-56
2022/03/17 04:48:11;;;;;;;66.68;31.40;;;;;;;7.58;100.00;102278.78;5034841;28;20037;-55
2022/03/17 04:50:36;;;;;;;63.15;31.30;;;;;;;7.54;100.00;102277.31;5031923;28;20025;-55
2022/03/17 04:55:45;;;;;;;53.90;26.10;;;;;;;7.54;100.00;102299.41;5051863;28;20368;-55
2022/03/17 04:58:11;;;;;;;59.58;28.02;;;;;;;7.57;100.00;102312.50;5052156;28;20036;-55
2022/03/17 05:00:36;;;;;;;44.45;17.35;;;;;;;7.58;100.00;102316.84;5051602;28;20456;-55
2022/03/17 05:03:01;;;;;;;45.40;21.02;;;;;;;7.59;100.00;102331.84;5051164;28;20029;-55
2022/03/17 05:05:27;;;;;;;34.85;15.15;;;;;;;7.55;100.00;102356.09;5035510;28;20416;-55
2022/03/17 05:07:57;;;;;;;34.17;11.20;;;;;;;7.51;100.00;102338.66;5046099;28;20048;-55
2022/03/17 05:10:22;;;;;;;31.33;10.25;;;;;;;7.49;100.00;102362.69;5032729;28;20032;-55
2022/03/17 05:12:47;;;;;;;37.22;11.00;;;;;;;7.46;100.00;102378.84;5032780;28;20028;-54
2022/03/17 05:15:13;;;;;;;23.00;9.65;;;;;;;7.44;100.00;102381.59;5041639;28;20454;-55
2022/03/17 05:17:40;;;;;;;31.52;9.50;;;;;;;7.39;100.00;102382.88;5051438;28;20301;-55
2022/03/17 05:20:11;;;;;;;32.17;8.45;;;;;;;7.38;100.00;102397.09;5052251;28;20054;-55
2022/03/17 05:22:36;;;;;;;28.63;7.60;;;;;;;7.37;100.00;102401.56;5050800;28;20025;-55
2022/03/17 05:25:04;;;;;;;29.02;6.75;;;;;;;7.34;100.00;102404.41;5050760;28;20024;-55
2022/03/17 05:27:30;;;;;;;18.92;6.22;;;;;;;7.29;100.00;102422.47;5051249;28;20257;-55
2022/03/17 05:29:55;;;;;;;18.33;5.95;;;;;;;7.25;100.00;102420.97;5051589;28;20483;-54
2022/03/17 05:32:20;;;;;;;29.83;5.40;;;;;;;7.26;100.00;102417.34;5051294;28;20032;-54
2022/03/17 05:34:45;;;;;;;25.10;5.82;;;;;;;7.23;100.00;102429.06;5050339;28;20063;-55
2022/03/17 05:37:11;;;;;;;23.00;5.15;;;;;;;7.26;100.00;102428.00;5042675;28;20043;-55
2022/03/17 05:39:36;;;;;;;20.85;5.40;;;;;;;7.24;100.00;102440.53;5045896;28;20467;-55
2022/03/17 05:42:02;;;;;;;13.52;4.70;;;;;;;7.24;100.00;102443.19;5035532;28;20024;-55
2022/03/17 05:44:27;;;;;;;15.10;5.10;;;;;;;7.21;100.00;102448.69;5034034;28;20059;-55
2022/03/17 05:46:54;;;;;;;20.63;4.57;;;;;;;7.20;100.00;102450.50;5044633;28;20396;-55
2022/03/17 05:49:19;;;;;;;24.92;5.10;;;;;;;7.23;100.00;102476.00;5036144;28;20470;-54
2022/03/17 05:51:44;;;;;;;17.88;4.25;;;;;;;7.16;100.00;102478.25;5055171;28;20082;-55
2022/03/17 05:54:10;;;;;;;20.02;5.00;;;;;;;7.16;100.00;102482.69;5043789;28;20083;-55
2022/03/17 05:56:35;;;;;;;24.67;4.40;;;;;;;7.15;100.00;102495.13;5055309;28;20420;-55
2022/03/17 05:59:00;;;;;;;18.88;4.13;;;;;;;7.16;100.00;102498.63;5055805;28;20539;-56
2022/03/17 06:01:26;;;;;;;11.98;3.53;;;;;;;7.14;100.00;102508.50;5055022;28;20392;-56
2022/03/17 06:03:51;;;;;;;17.67;4.15;;;;;;;7.04;100.00;102510.88;5049095;28;20052;-55
2022/03/17 06:06:16;;;;;;;18.98;4.03;;;;;;;7.03;100.00;102525.97;5052055;28;20020;-56
2022/03/17 06:08:41;;;;;;;17.67;4.00;;;;;;;7.02;100.00;102515.44;5040194;28;20060;-56
2022/03/17 06:11:07;;;;;;;13.02;2.92;;;;;;;7.03;100.00;102525.97;5034632;28;20060;-56
2022/03/17 06:13:32;;;;;;;15.65;2.90;;;;;;;7.02;100.00;102529.56;5039942;28;20465;-56
2022/03/17 06:15:57;;;;;;;14.38;3.60;;;;;;;6.98;100.00;102544.00;5054343;28;20032;-56
2022/03/17 06:18:23;;;;;;;17.80;3.05;;;;;;;6.99;100.00;102543.06;5046296;28;20075;-55
2022/03/17 06:20:48;;;;;;;16.48;2.83;;;;;;;6.97;100.00;102536.13;5036891;28;20495;-56
2022/03/17 06:23:13;;;;;;;17.08;3.08;;;;;;;6.94;100.00;102553.09;5052689;28;20056;-56
2022/03/17 06:25:38;;;;;;;13.88;2.55;;;;;;;6.99;100.00;102563.44;5035186;28;20127;-55
2022/03/17 06:28:04;;;;;;;19.75;3.10;;;;;;;6.96;100.00;102569.81;5019318;28;20080;-56
2022/03/17 06:30:31;;;;;;;16.63;2.65;;;;;;;6.99;100.00;102566.97;5053731;28;20016;-56
2022/03/17 06:32:56;;;;;;;14.98;3.40;;;;;;;6.97;100.00;102568.84;5053473;28;20040;-56
2022/03/17 06:35:24;;;;;;;17.23;3.00;;;;;;;6.96;100.00;102576.91;5054499;28;20048;-55
2022/03/17 06:37:54;;;;;;;24.20;3.50;;;;;;;6.96;100.00;102592.84;5053028;28;20479;-55
2022/03/17 06:40:21;;;;;;;15.20;3.75;;;;;;;6.92;100.00;102592.19;5033013;28;20126;-56
2022/03/17 06:42:47;;;;;;;13.15;3.13;;;;;;;6.95;100.00;102599.13;5034860;28;20094;-56
2022/03/17 06:45:13;;;;;;;15.20;2.83;;;;;;;6.96;100.00;102598.16;5053776;28;20437;-56
2022/03/17 06:47:39;;;;;;;12.77;3.08;;;;;;;6.96;100.00;102599.03;5041233;28;20032;-55
2022/03/17 06:50:05;;;;;;;17.13;3.20;;;;;;;6.95;100.00;102613.25;5034016;28;20108;-56
2022/03/17 06:52:30;;;;;;;22.15;3.80;;;;;;;6.97;100.00;102624.63;5040739;28;20535;-56
2022/03/17 06:54:56;;;;;;;16.08;3.53;;;;;;;6.99;100.00;102629.84;5052760;28;20359;-56
2022/03/17 06:57:23;;;;;;;17.55;3.13;;;;;;;6.98;100.00;102638.78;5054108;28;20140;-56
2022/03/17 06:59:49;;;;;;;20.60;3.72;;;;;;;6.97;100.00;102648.53;5033416;28;20237;-55
2022/03/17 07:02:15;;;;;;;12.77;2.70;;;;;;;7.04;100.00;102641.06;5015156;28;20059;-56
2022/03/17 07:04:41;;;;;;;12.85;2.72;;;;;;;7.06;100.00;102644.47;5039517;28;20503;-56
2022/03/17 07:07:07;;;;;;;25.58;3.20;;;;;;;7.09;100.00;102654.91;5034954;28;20036;-56
2022/03/17 07:09:33;;;;;;;10.82;2.40;;;;;;;7.15;100.00;102651.03;5052406;28;20112;-55
2022/03/17 07:11:58;;;;;;;13.25;2.30;;;;;;;7.17;100.00;102652.66;5053643;28;20127;-56
2022/03/17 07:14:23;;;;;;;17.25;2.38;;;;;;;7.14;100.00;102674.09;5048218;28;20404;-55
2022/03/17 07:16:49;;;;;;;11.60;2.10;;;;;;;7.14;100.00;102670.59;5052901;28;20428;-55
2022/03/17 07:19:15;;;;;;;15.73;2.55;;;;;;;7.07;100.00;102678.91;5052816;28;20558;-56
2022/03/17 07:21:41;;;;;;;11.82;2.10;;;;;;;7.10;100.00;102685.84;5052963;28;20144;-56
2022/03/17 07:24:08;;;;;;;16.20;2.30;;;;;;;7.09;100.00;102700.94;5047405;28;20036;-56
2022/03/17 07:26:33;;;;;;;14.57;2.38;;;;;;;7.04;100.00;102696.84;5045515;28;20052;-54
2022/03/17 07:28:59;;;;;;;24.77;2.78;;;;;;;7.05;100.00;102710.03;5040757;28;20751;-55
2022/03/17 07:31:24;;;;;;;10.85;2.20;;;;;;;7.02;100.00;102704.06;5033028;28;20245;-54
2022/03/17 07:33:50;;;;;;;18.50;2.72;;;;;;;7.02;100.00;102710.22;5032947;28;20099;-55
2022/03/17 07:36:16;;;;;;;15.35;2.42;;;;;;;7.01;100.00;102715.63;5051994;28;20074;-54
2022/03/17 07:38:41;;;;;;;16.10;2.22;;;;;;;7.01;100.00;102728.91;5050963;28;20526;-55
2022/03/17 07:41:06;;;;;;;18.67;2.75;;;;;;;7.00;100.00;102727.22;5052959;28;20020;-55
2022/03/17 07:43:32;;;;;;;12.80;2.33;;;;;;;7.01;100.00;102737.75;5052553;28;20060;-53
2022/03/17 07:45:57;;;;;;;18.10;3.22;;;;;;;7.04;100.00;102739.34;5051952;28;20036;-55
2022/03/17 07:48:22;;;;;;;18.60;2.53;;;;;;;7.05;100.00;102741.91;5035929;28;20035;-55
2022/03/17 07:50:50;;;;;;;29.95;2.90;;;;;;;7.05;100.00;102749.03;5050302;28;20028;-55
2022/03/17 07:53:16;;;;;;;20.88;2.30;;;;;;;7.09;100.00;102750.56;5051130;28;20576;-55
2022/03/17 07:55:42;;;;;;;30.63;2.80;;;;;;;7.16;100.00;102754.59;5053305;28;20443;-54
2022/03/17 07:58:08;;;;;;;16.17;2.13;;;;;;;7.23;100.00;102752.38;5041971;28;20036;-55
2022/03/17 08:00:33;;;;;;;22.42;2.70;;;;;;;7.23;100.00;102758.56;5051386;28;20039;-55
2022/03/17 08:02:59;;;;;;;13.93;2.15;;;;;;;7.23;100.00;102766.56;5036665;28;20087;-55
2022/03/17 08:05:25;;;;;;;15.32;2.33;;;;;;;7.24;100.00;102773.56;5044323;28;20028;-54
2022/03/17 08:07:50;;;;;;;17.38;2.45;;;;;;;7.20;100.00;102784.47;5052078;28;20485;-55
2022/03/17 08:10:15;;;;;;;25.92;2.75;;;;;;;7.20;100.00;102795.13;5051697;28;20398;-55
2022/03/17 08:12:41;;;;;;;26.27;2.50;;;;;;;7.22;100.00;102796.72;5042238;28;20031;-55
2022/03/17 08:15:06;;;;;;;23.20;2.50;;;;;;;7.20;100.00;102798.63;5032291;28;20037;-54
2022/03/17 08:17:33;;;;;;;25.75;3.42;;;;;;;7.31;100.00;102797.97;5031693;28;20029;-55
2022/03/17 08:19:58;;;;;;;26.50;2.97;;;;;;;7.40;100.00;102809.84;5037617;28;20101;-55
2022/03/17 08:22:25;;;;;;;23.08;3.67;;;;;;;7.50;100.00;102813.66;5051567;28;20055;-56
2022/03/17 08:24:50;;;;;;;19.35;3.10;;;;;;;7.62;100.00;102817.38;5051165;28;20024;-55
2022/03/17 08:27:16;;;;;;;19.80;3.05;;;;;;;7.74;100.00;102819.31;5052421;28;20225;-56
2022/03/17 08:29:42;;;;;;;24.77;3.25;;;;;;;7.75;100.00;102834.31;5050941;28;20031;-56
2022/03/17 08:32:08;;;;;;;24.77;3.92;;;;;;;7.77;100.00;102839.53;5033760;28;20472;-58
2022/03/17 08:34:34;;;;;;;27.75;4.35;;;;;;;7.82;100.00;102848.97;5033020;28;20036;-56
2022/03/17 08:36:59;;;;;;;22.65;3.95;;;;;;;7.83;100.00;102847.16;5047079;28;20024;-56
2022/03/17 08:39:25;;;;;;;19.98;3.70;;;;;;;7.90;100.00;102850.31;5049622;28;20048;-56
2022/03/17 08:41:52;;;;;;;16.20;3.00;;;;;;;7.89;100.00;102848.56;5052130;28;20350;-56
2022/03/17 08:44:18;;;;;;;22.23;2.03;;;;;;;7.91;100.00;102859.97;5050683;28;20059;-56
2022/03/17 08:49:27;;;;;;;18.73;1.83;;;;;;;8.05;100.00;102870.63;5051402;28;20394;-55
2022/03/17 08:51:56;;;;;;;14.88;1.90;;;;;;;8.13;100.00;102867.47;5048272;28;20028;-55
2022/03/17 08:54:22;;;;;;;13.70;1.90;;;;;;;8.20;100.00;102872.34;5049507;28;20021;-55
2022/03/17 08:56:59;;;;;;;17.25;2.30;;;;;;;8.24;100.00;102888.13;5049088;28;20167;-56
2022/03/17 08:59:31;;;;;;;16.90;2.00;;;;;;;8.15;100.00;102889.56;5051562;28;20359;-56
2022/03/17 09:01:58;;;;;;;11.25;1.88;;;;;;;8.09;100.00;102885.44;5051319;28;20059;-56
2022/03/17 09:04:23;;;;;;;16.25;2.38;;;;;;;8.05;100.00;102891.09;5048510;28;20578;-56
2022/03/17 09:06:48;;;;;;;15.18;1.67;;;;;;;8.03;100.00;102896.50;5031146;28;20527;-56
2022/03/17 09:09:13;;;;;;;18.45;2.33;;;;;;;8.06;100.00;102898.94;5039977;28;20028;-56
2022/03/17 09:11:39;;;;;;;17.48;1.90;;;;;;;8.10;100.00;102903.16;5051609;28;20032;-55
2022/03/17 09:14:04;;;;;;;18.67;2.25;;;;;;;8.20;100.00;102901.63;5051711;28;20170;-56
2022/03/17 09:16:30;;;;;;;19.90;2.10;;;;;;;8.26;100.00;102902.19;5054437;28;20038;-56
2022/03/17 09:18:56;;;;;;;21.48;2.40;;;;;;;8.34;100.00;102911.41;5054700;28;20249;-56
2022/03/17 09:21:21;;;;;;;15.75;2.28;;;;;;;8.36;100.00;102913.97;5055328;28;20396;-56
2022/03/17 09:23:47;;;;;;;17.08;2.22;;;;;;;8.43;100.00;102920.66;5048279;28;20056;-56
2022/03/17 09:26:14;;;;;;;19.95;2.08;;;;;;;8.47;100.00;102931.97;5047956;28;20531;-56
2022/03/17 09:28:39;;;;;;;18.02;2.53;;;;;;;8.53;100.00;102936.94;5027792;28;20025;-56
2022/03/17 09:31:04;;;;;;;17.27;2.10;;;;;;;8.52;98.53;102941.41;5034745;28;20056;-56
2022/03/17 09:33:30;;;;;;;14.43;1.80;;;;;;;8.54;97.48;102938.66;5044822;28;20032;-56
2022/03/17 09:35:56;;;;;;;18.63;2.00;;;;;;;8.49;95.76;102941.59;5055415;28;20089;-56
2022/03/17 09:38:23;;;;;;;13.95;2.22;;;;;;;8.56;98.76;102948.25;5034597;28;20123;-56
2022/03/17 09:40:48;;;;;;;18.23;2.22;;;;;;;8.66;97.42;102951.19;5036219;28;20040;-56
2022/03/17 09:43:19;;;;;;;21.08;2.10;;;;;;;8.61;95.89;102947.13;5054557;28;20277;-56
2022/03/17 09:45:53;;;;;;;18.88;2.58;;;;;;;8.62;97.72;102959.47;5037199;28;20032;-56
2022/03/17 09:48:21;;;;;;;17.30;2.15;;;;;;;8.67;96.62;102963.56;5054594;28;20371;-56
2022/03/17 09:50:47;;;;;;;20.23;1.90;;;;;;;8.67;96.18;102962.69;5054791;28;20278;-56
2022/03/17 09:53:13;;;;;;;17.30;2.38;;;;;;;8.64;96.85;102966.41;5054400;28;20070;-56
2022/03/17 09:55:43;;;;;;;21.55;2.17;;;;;;;8.65;95.01;102967.28;5053269;28;20020;-56
2022/03/17 09:58:09;;;;;;;25.90;2.10;;;;;;;8.62;93.89;102978.97;5052846;28;20112;-55
2022/03/17 10:00:52;;;;;;;9.80;1.52;;;;;;;8.67;94.80;102984.00;5047408;28;20124;-55
2022/03/17 10:03:25;;;;;;;14.77;2.13;;;;;;;8.72;92.84;102992.56;5034694;28;20045;-55
2022/03/17 10:05:53;;;;;;;13.20;1.60;;;;;;;8.73;93.09;102991.63;5049384;28;20020;-55
2022/03/17 10:08:20;;;;;;;12.30;1.83;;;;;;;8.70;93.24;103010.47;5039747;28;20072;-54
2022/03/17 10:10:46;;;;;;;12.43;1.90;;;;;;;8.75;92.29;103013.69;5033658;28;20032;-55
2022/03/17 10:13:11;;;;;;;18.85;1.58;;;;;;;8.77;91.81;103011.78;5034508;28;20094;-56
2022/03/17 10:15:37;;;;;;;26.80;2.27;;;;;;;8.78;91.61;103017.00;5033799;28;20395;-55
2022/03/17 10:18:24;;;;;;;20.23;2.13;;;;;;;8.86;93.18;103021.00;5034036;28;20500;-55
2022/03/17 10:21:11;;;;;;;11.50;1.92;;;;;;;9.05;93.64;103024.22;5036216;28;20085;-55
2022/03/17 10:23:52;;;;;;;11.65;2.10;;;;;;;9.03;91.38;103033.25;5052215;28;20152;-56
2022/03/17 10:26:47;;;;;;;14.85;2.05;;;;;;;9.02;92.60;103039.56;5051178;28;20511;-56
2022/03/17 10:29:15;;;;;;;12.15;2.22;;;;;;;8.97;91.41;103050.50;5053208;28;20537;-56
2022/03/17 10:32:04;;;;;;;21.75;2.40;;;;;;;8.83;90.73;103058.53;5054014;28;20028;-55
2022/03/17 10:34:47;;;;;;;17.33;1.98;;;;;;;8.77;90.43;103063.28;5034771;28;20390;-56
2022/03/17 10:37:20;;;;;;;8.82;2.10;;;;;;;8.70;89.71;103063.75;5054423;28;20186;-56
2022/03/17 10:39:47;;;;;;;10.35;2.00;;;;;;;8.71;90.80;103063.66;5055127;28;20016;-56
2022/03/17 10:42:17;;;;;;;11.93;2.05;;;;;;;8.72;89.08;103077.81;5053377;28;20024;-56
2022/03/17 10:44:48;;;;;;;11.07;1.70;;;;;;;8.75;89.37;103078.47;5053834;28;20031;-54
2022/03/17 10:47:14;;;;;;;9.88;2.28;;;;;;;8.89;87.89;103082.09;5053026;28;20283;-56
2022/03/17 10:49:59;;;;;;;8.98;2.00;;;;;;;8.99;86.07;103071.75;5051979;28;20020;-56
2022/03/17 10:52:24;;;;;;;7.07;1.65;;;;;;;9.10;85.37;103079.94;5036593;28;20093;-55
2022/03/17 10:54:56;;;;;;;7.85;1.77;;;;;;;9.20;84.61;103078.41;5052452;28;20124;-55
2022/03/17 10:57:24;;;;;;;14.05;2.03;;;;;;;9.11;84.36;103073.63;5048880;28;20401;-55
2022/03/17 10:59:53;;;;;;;12.00;2.00;;;;;;;9.23;86.52;103080.88;5049367;28;20100;-55
2022/03/17 11:02:21;;;;;;;7.43;1.70;;;;;;;9.32;84.52;103088.28;5035544;28;20021;-55
2022/03/17 11:04:47;;;;;;;10.10;2.00;;;;;;;9.32;84.70;103092.75;5049194;28;20082;-56
2022/03/17 11:07:14;;;;;;;11.88;2.42;;;;;;;9.31;85.43;103096.38;5053834;28;20364;-55
2022/03/17 11:09:42;;;;;;;15.10;2.10;;;;;;;9.45;87.10;103100.81;5049341;28;20032;-55
2022/03/17 11:12:09;;;;;;;14.50;2.35;;;;;;;9.63;87.75;103110.31;5034377;28;20214;-56
2022/03/17 11:14:51;;;;;;;9.73;2.30;;;;;;;9.62;83.66;103116.63;5013990;28;20099;-56
2022/03/17 11:17:29;;;;;;;11.13;2.40;;;;;;;9.55;86.29;103117.09;5033818;28;20076;-55
2022/03/17 11:20:02;;;;;;;18.50;3.08;;;;;;;9.59;86.04;103132.81;5037028;28;20064;-55
2022/03/17 11:22:29;;;;;;;13.02;2.97;;;;;;;9.52;86.27;103131.47;5034515;28;20032;-56
2022/03/17 11:25:17;;;;;;;16.10;3.00;;;;;;;9.63;87.56;103130.81;5032347;28;20554;-55
2022/03/17 11:27:46;;;;;;;15.10;2.88;;;;;;;9.78;87.35;103132.47;5035058;28;20021;-55